Time;durP1;ratioP1;P1;durP2;ratioP2;P2;SDS_P1;SDS_P2;PMS_P1;PMS_P2;Temp;Humidity;BMP_temperature;BMP_pressure;BME280_temperature;BME280_humidity;BME280_pressure;Samples;Min_cycle;Max_cycle;Signal;HPM_P1;HPM_P2
2022/08/25 00:02:40;;;;;;;4.20;3.90;;;18.90;99.90;;;;;;4838628;29;20198;-87
2022/08/25 00:05:06;;;;;;;4.33;4.03;;;18.90;99.90;;;;;;4834158;29;20985;-87
2022/08/25 00:07:32;;;;;;;3.77;3.47;;;18.90;99.90;;;;;;4839755;29;20491;-86
2022/08/25 00:09:58;;;;;;;4.97;4.67;;;18.90;99.90;;;;;;4846386;29;21162;-86
2022/08/25 00:12:25;;;;;;;4.87;4.50;;;18.90;99.90;;;;;;4835713;29;20465;-86
2022/08/25 00:14:50;;;;;;;4.83;4.43;;;18.90;99.90;;;;;;4824756;29;20271;-86
2022/08/25 00:17:16;;;;;;;4.37;4.07;;;18.90;99.90;;;;;;4805777;29;20491;-86
2022/08/25 00:19:41;;;;;;;4.10;3.80;;;18.80;99.90;;;;;;4839920;29;20596;-86
2022/08/25 00:22:08;;;;;;;4.60;4.20;;;18.80;99.90;;;;;;4830317;29;20268;-86
2022/08/25 00:24:34;;;;;;;4.53;4.13;;;18.90;99.90;;;;;;4844413;29;20241;-85
2022/08/25 00:27:00;;;;;;;4.63;4.33;;;18.80;99.90;;;;;;4829609;29;20455;-86
2022/08/25 00:29:28;;;;;;;4.97;4.67;;;18.70;99.90;;;;;;4827393;29;20191;-86
2022/08/25 00:31:55;;;;;;;5.30;4.90;;;18.70;99.90;;;;;;4837385;29;20976;-86
2022/08/25 00:34:32;;;;;;;4.67;4.30;;;18.60;99.90;;;;;;4832014;29;20453;-86
2022/08/25 00:36:58;;;;;;;4.63;4.23;;;18.60;99.90;;;;;;4831525;29;20538;-87
2022/08/25 00:39:25;;;;;;;4.40;4.00;;;18.70;99.90;;;;;;4841375;29;20447;-86
2022/08/25 00:41:54;;;;;;;4.83;4.43;;;18.80;99.90;;;;;;4832402;29;20475;-86
2022/08/25 00:44:26;;;;;;;5.20;4.70;;;18.80;99.90;;;;;;4847671;29;20830;-88
2022/08/25 00:46:59;;;;;;;6.00;4.50;;;18.80;99.90;;;;;;4825565;29;20454;-88
2022/08/25 00:49:46;;;;;;;4.53;4.23;;;18.90;99.90;;;;;;4827060;29;20438;-87
2022/08/25 00:52:19;;;;;;;4.57;4.20;;;18.80;99.90;;;;;;4833357;29;20455;-87
2022/08/25 00:54:53;;;;;;;5.07;4.60;;;18.80;99.90;;;;;;4815174;29;20444;-87
2022/08/25 00:57:26;;;;;;;6.30;4.70;;;18.70;99.90;;;;;;4825090;29;20918;-86
2022/08/25 00:59:53;;;;;;;5.10;4.70;;;18.60;99.90;;;;;;4841166;29;20518;-86
2022/08/25 01:02:34;;;;;;;4.60;4.30;;;18.60;99.90;;;;;;4845765;29;20542;-87
2022/08/25 01:05:02;;;;;;;4.97;4.63;;;18.60;99.90;;;;;;4830119;29;20488;-87
2022/08/25 01:07:32;;;;;;;4.83;4.43;;;18.50;99.90;;;;;;4842659;29;20949;-87
2022/08/25 01:09:59;;;;;;;4.70;4.40;;;18.40;99.90;;;;;;4814884;29;20550;-87
2022/08/25 01:12:25;;;;;;;5.10;4.70;;;18.40;99.90;;;;;;4840618;29;20509;-87
2022/08/25 01:14:51;;;;;;;5.20;4.80;;;18.40;99.90;;;;;;4832001;29;20447;-86
2022/08/25 01:17:17;;;;;;;4.53;4.13;;;18.30;99.90;;;;;;4844645;29;20573;-87
2022/08/25 01:19:43;;;;;;;6.00;5.53;;;18.30;99.90;;;;;;4823000;29;20449;-86
2022/08/25 01:22:10;;;;;;;5.90;5.40;;;18.30;99.90;;;;;;4836774;29;20610;-86
2022/08/25 01:25:03;;;;;;;4.80;4.30;;;18.30;99.90;;;;;;4842765;29;21868;-87
2022/08/25 01:27:29;;;;;;;6.07;5.10;;;18.20;99.90;;;;;;4836810;29;20450;-86
2022/08/25 01:29:56;;;;;;;6.93;5.87;;;18.20;99.90;;;;;;4829775;29;21190;-86
2022/08/25 01:32:22;;;;;;;5.30;4.80;;;18.20;99.90;;;;;;4837249;29;20191;-86
2022/08/25 01:34:48;;;;;;;5.40;5.00;;;18.20;99.90;;;;;;4825853;29;20450;-87
2022/08/25 01:37:15;;;;;;;5.20;4.80;;;18.40;99.90;;;;;;4831177;29;20482;-87
2022/08/25 01:39:42;;;;;;;6.23;5.63;;;18.60;99.90;;;;;;4827819;29;20186;-85
2022/08/25 01:42:33;;;;;;;5.30;4.80;;;18.60;99.90;;;;;;4842624;29;20452;-87
2022/08/25 01:44:58;;;;;;;6.43;5.00;;;18.70;99.90;;;;;;4847361;29;21629;-86
2022/08/25 01:47:31;;;;;;;5.90;5.37;;;18.70;99.90;;;;;;4843610;29;20462;-87
2022/08/25 01:49:56;;;;;;;6.30;5.27;;;18.70;99.90;;;;;;4831525;29;20182;-87
2022/08/25 01:52:28;;;;;;;5.73;5.23;;;18.70;99.90;;;;;;4827803;29;20459;-86
2022/08/25 01:54:53;;;;;;;5.80;5.30;;;18.70;99.90;;;;;;4831352;29;20230;-85
2022/08/25 01:57:19;;;;;;;6.40;5.80;;;18.80;99.90;;;;;;4835159;29;21098;-86
2022/08/25 01:59:45;;;;;;;6.47;5.87;;;18.70;99.90;;;;;;4831093;29;20654;-86
2022/08/25 02:02:10;;;;;;;5.10;4.70;;;18.80;99.90;;;;;;4829564;29;20729;-86
2022/08/25 02:04:36;;;;;;;5.90;5.40;;;18.70;99.90;;;;;;4843501;29;20539;-86
2022/08/25 02:07:04;;;;;;;6.30;5.70;;;18.60;99.90;;;;;;4826580;29;20296;-86
2022/08/25 02:09:30;;;;;;;6.07;5.67;;;18.50;99.90;;;;;;4827000;29;20199;-86
2022/08/25 02:11:55;;;;;;;6.00;5.50;;;18.50;99.90;;;;;;4830030;29;20878;-85
2022/08/25 02:14:21;;;;;;;5.63;5.20;;;18.50;99.90;;;;;;4831827;29;20245;-86
2022/08/25 02:16:50;;;;;;;5.90;5.40;;;18.50;99.90;;;;;;4832845;29;20218;-86
2022/08/25 02:19:17;;;;;;;6.17;5.17;;;18.50;99.90;;;;;;4832553;29;20193;-85
2022/08/25 02:21:43;;;;;;;6.47;5.90;;;18.40;99.90;;;;;;4844990;29;20448;-86
2022/08/25 02:24:09;;;;;;;5.77;5.27;;;18.40;99.90;;;;;;4844069;29;20443;-86
2022/08/25 02:26:35;;;;;;;6.50;5.20;;;18.40;99.90;;;;;;4837580;29;20518;-86
2022/08/25 02:29:02;;;;;;;5.83;5.27;;;18.40;99.90;;;;;;4832690;29;20190;-86
2022/08/25 02:31:28;;;;;;;5.50;5.00;;;18.40;99.90;;;;;;4834657;29;20988;-87
2022/08/25 02:33:55;;;;;;;5.70;5.20;;;18.40;99.90;;;;;;4823607;29;20972;-87
2022/08/25 02:36:22;;;;;;;8.90;5.67;;;18.30;99.90;;;;;;4832039;29;20525;-86
2022/08/25 02:38:51;;;;;;;6.80;6.20;;;18.10;99.90;;;;;;4831871;29;20453;-86
2022/08/25 02:41:23;;;;;;;5.90;5.37;;;18.00;99.90;;;;;;4834042;29;20461;-87
2022/08/25 02:43:48;;;;;;;5.83;5.20;;;17.80;99.90;;;;;;4843351;29;21041;-86
2022/08/25 02:46:16;;;;;;;6.40;5.80;;;17.80;99.90;;;;;;4842065;29;20447;-86
2022/08/25 02:48:41;;;;;;;6.00;5.50;;;17.90;99.90;;;;;;4826458;29;20194;-86
2022/08/25 02:51:09;;;;;;;6.40;5.80;;;18.00;99.90;;;;;;4831623;29;21049;-86
2022/08/25 02:53:38;;;;;;;5.90;5.40;;;18.20;99.90;;;;;;4846196;29;20194;-86
2022/08/25 02:56:06;;;;;;;5.80;5.40;;;18.20;99.90;;;;;;4844611;29;20467;-86
2022/08/25 02:58:31;;;;;;;6.10;5.60;;;18.20;99.90;;;;;;4825700;29;20490;-86
2022/08/25 03:00:57;;;;;;;6.03;5.53;;;18.20;99.90;;;;;;4816125;29;20442;-86
2022/08/25 03:03:23;;;;;;;6.00;5.40;;;17.90;99.90;;;;;;4831791;29;20654;-87
2022/08/25 03:05:48;;;;;;;6.50;5.90;;;17.80;99.90;;;;;;4831593;29;20198;-86
2022/08/25 03:08:14;;;;;;;6.97;6.27;;;17.60;99.90;;;;;;4832609;29;20195;-86
2022/08/25 03:10:40;;;;;;;6.87;6.17;;;17.60;99.90;;;;;;4828078;29;20190;-87
2022/08/25 03:13:06;;;;;;;6.53;6.03;;;17.60;99.90;;;;;;4844475;29;20890;-87
2022/08/25 03:15:32;;;;;;;6.47;5.93;;;17.80;99.90;;;;;;4827539;29;20202;-86
2022/08/25 03:17:57;;;;;;;5.87;5.47;;;17.80;99.90;;;;;;4829993;29;20284;-87
2022/08/25 03:20:24;;;;;;;6.43;5.50;;;17.80;99.90;;;;;;4812914;29;20194;-87
2022/08/25 03:22:51;;;;;;;7.17;5.90;;;17.70;99.90;;;;;;4811645;29;20753;-87
2022/08/25 03:28:02;;;;;;;7.63;6.10;;;17.40;99.90;;;;;;4844919;29;20620;-87
2022/08/25 03:30:29;;;;;;;6.40;5.80;;;17.30;99.90;;;;;;4825552;29;20455;-87
2022/08/25 03:32:55;;;;;;;6.83;5.70;;;17.30;99.90;;;;;;4832005;29;20442;-86
2022/08/25 03:35:21;;;;;;;5.70;5.20;;;17.40;99.90;;;;;;4842858;29;20455;-87
2022/08/25 03:37:47;;;;;;;6.53;5.90;;;17.40;99.90;;;;;;4841248;29;20552;-87
2022/08/25 03:40:15;;;;;;;8.17;6.90;;;17.40;99.90;;;;;;4839543;29;20529;-87
2022/08/25 03:42:43;;;;;;;6.40;5.80;;;17.40;99.90;;;;;;4844922;29;20191;-86
2022/08/25 03:45:10;;;;;;;6.67;6.03;;;17.30;99.90;;;;;;4816136;29;20543;-87
2022/08/25 03:47:37;;;;;;;6.53;5.93;;;17.30;99.90;;;;;;4818170;29;20515;-87
2022/08/25 03:50:05;;;;;;;7.63;6.87;;;17.20;99.90;;;;;;4827515;29;20463;-86
2022/08/25 03:52:30;;;;;;;6.67;6.07;;;17.10;99.90;;;;;;4827336;29;20542;-86
2022/08/25 03:54:56;;;;;;;6.00;5.50;;;17.10;99.90;;;;;;4829432;29;20549;-87
2022/08/25 03:57:21;;;;;;;6.00;5.50;;;17.10;99.90;;;;;;4845133;29;20318;-87
2022/08/25 03:59:47;;;;;;;6.50;5.80;;;17.10;99.90;;;;;;4828984;29;20210;-87
2022/08/25 04:02:13;;;;;;;6.30;5.70;;;17.10;99.90;;;;;;4812333;29;20680;-87
2022/08/25 04:04:39;;;;;;;5.60;5.10;;;17.10;99.90;;;;;;4829359;29;20688;-87
2022/08/25 04:07:05;;;;;;;7.20;6.60;;;17.10;99.90;;;;;;4841718;29;20247;-86
2022/08/25 04:09:31;;;;;;;6.27;5.77;;;17.10;99.90;;;;;;4834671;29;20873;-87
2022/08/25 04:11:57;;;;;;;6.23;5.73;;;17.10;99.90;;;;;;4865268;29;20454;-87
2022/08/25 04:14:23;;;;;;;6.33;5.83;;;17.00;99.90;;;;;;4864035;29;20482;-87
2022/08/25 04:16:49;;;;;;;6.67;6.07;;;17.10;99.90;;;;;;4845653;29;20234;-87
2022/08/25 04:19:15;;;;;;;6.43;5.93;;;17.00;99.90;;;;;;4834241;29;20523;-87
2022/08/25 04:21:41;;;;;;;7.13;6.50;;;17.10;99.90;;;;;;4829096;29;20487;-86
2022/08/25 04:24:09;;;;;;;6.60;6.00;;;17.00;99.90;;;;;;4833273;29;20194;-87
2022/08/25 04:26:38;;;;;;;7.33;6.57;;;16.90;99.90;;;;;;4848236;29;20503;-87
2022/08/25 04:29:09;;;;;;;7.23;6.53;;;16.90;99.90;;;;;;4852944;29;20446;-87
2022/08/25 04:31:51;;;;;;;8.00;7.30;;;16.90;99.90;;;;;;4821892;29;20463;-87
2022/08/25 04:34:19;;;;;;;6.63;6.03;;;17.00;99.90;;;;;;4845929;29;20431;-87
2022/08/25 04:36:45;;;;;;;6.90;6.30;;;17.10;99.90;;;;;;4851490;29;20570;-86
2022/08/25 04:39:11;;;;;;;6.93;6.30;;;17.20;99.90;;;;;;4836540;29;20430;-88
2022/08/25 04:41:37;;;;;;;6.40;5.80;;;17.10;99.90;;;;;;4832861;29;20443;-87
2022/08/25 04:44:04;;;;;;;7.03;6.30;;;17.00;99.90;;;;;;4834329;29;20828;-87
2022/08/25 04:46:31;;;;;;;7.10;6.50;;;17.00;99.90;;;;;;4829392;29;20450;-87
2022/08/25 04:48:59;;;;;;;7.10;6.40;;;17.00;99.90;;;;;;4847246;29;20599;-87
2022/08/25 04:51:35;;;;;;;7.60;7.00;;;17.00;99.90;;;;;;4854687;29;20432;-87
2022/08/25 04:54:04;;;;;;;6.73;6.23;;;17.00;99.90;;;;;;4834174;29;20438;-87
2022/08/25 04:56:34;;;;;;;7.40;6.70;;;17.10;99.90;;;;;;4835607;29;20861;-87
2022/08/25 04:59:09;;;;;;;6.70;6.10;;;17.10;99.90;;;;;;4854266;29;20501;-87
2022/08/25 05:01:34;;;;;;;7.20;6.60;;;17.10;99.90;;;;;;4847950;29;20901;-88
2022/08/25 05:04:03;;;;;;;7.63;6.80;;;17.20;99.90;;;;;;4826825;29;20510;-88
2022/08/25 05:06:29;;;;;;;7.23;6.63;;;17.20;99.90;;;;;;4851736;29;20186;-88
2022/08/25 05:08:57;;;;;;;6.87;6.23;;;17.20;99.90;;;;;;4834955;29;20933;-90
2022/08/25 05:11:24;;;;;;;6.80;6.20;;;17.20;99.90;;;;;;4829359;29;20808;-88
2022/08/25 05:13:52;;;;;;;7.50;6.90;;;17.20;99.90;;;;;;4848052;29;20678;-88
2022/08/25 05:16:19;;;;;;;6.30;5.80;;;17.30;99.90;;;;;;4830990;29;20459;-87
2022/08/25 05:18:44;;;;;;;6.47;5.87;;;17.30;99.90;;;;;;4849697;29;20469;-89
2022/08/25 05:21:16;;;;;;;7.53;6.83;;;17.20;99.90;;;;;;4834537;29;20435;-87
2022/08/25 05:23:43;;;;;;;7.30;6.60;;;17.30;99.90;;;;;;4846200;29;20193;-87
2022/08/25 05:26:14;;;;;;;7.67;7.07;;;17.40;99.90;;;;;;4837776;29;20461;-88
2022/08/25 05:28:40;;;;;;;7.20;6.53;;;17.50;99.90;;;;;;4846188;29;20475;-88
2022/08/25 05:31:08;;;;;;;8.07;7.37;;;17.50;99.90;;;;;;4836414;29;20447;-87
2022/08/25 05:33:34;;;;;;;7.80;6.60;;;17.60;99.90;;;;;;4832696;29;20458;-87
2022/08/25 05:36:01;;;;;;;6.90;6.30;;;17.70;99.90;;;;;;4819492;29;20467;-87
2022/08/25 05:38:27;;;;;;;7.30;6.60;;;18.40;99.90;;;;;;4847375;29;20459;-87
2022/08/25 05:40:57;;;;;;;7.30;6.70;;;17.90;99.90;;;;;;4826258;29;21081;-86
2022/08/25 05:43:23;;;;;;;7.37;6.77;;;18.00;99.90;;;;;;4837527;29;20554;-86
2022/08/25 05:45:49;;;;;;;8.30;7.50;;;18.10;99.90;;;;;;4825323;29;20886;-85
2022/08/25 05:48:14;;;;;;;8.67;7.87;;;18.10;99.90;;;;;;4850305;29;20284;-85
2022/08/25 05:50:40;;;;;;;8.73;7.87;;;18.20;99.90;;;;;;4846234;29;20194;-86
2022/08/25 05:53:05;;;;;;;10.43;8.23;;;18.30;99.90;;;;;;4847025;29;20208;-86
2022/08/25 05:55:31;;;;;;;9.70;8.90;;;18.20;99.90;;;;;;4826092;29;20416;-86
2022/08/25 05:57:58;;;;;;;9.50;8.60;;;18.30;99.90;;;;;;4851936;29;20200;-86
2022/08/25 06:00:23;;;;;;;9.43;8.53;;;18.30;99.90;;;;;;4824940;29;20193;-85
2022/08/25 06:02:49;;;;;;;9.13;8.27;;;18.40;99.90;;;;;;4826698;29;20799;-86
2022/08/25 06:05:18;;;;;;;8.77;8.00;;;18.50;99.90;;;;;;4837243;29;20190;-86
2022/08/25 06:07:45;;;;;;;10.17;8.43;;;18.60;99.90;;;;;;4848353;29;20447;-86
2022/08/25 06:10:12;;;;;;;9.40;8.50;;;18.70;99.90;;;;;;4849728;29;20479;-86
2022/08/25 06:12:40;;;;;;;9.60;8.70;;;18.70;99.90;;;;;;4833060;29;21202;-86
2022/08/25 06:15:06;;;;;;;10.30;9.30;;;18.80;99.90;;;;;;4845942;29;20880;-87
2022/08/25 06:17:34;;;;;;;9.03;8.23;;;18.80;99.90;;;;;;4843880;29;20538;-85
2022/08/25 06:20:00;;;;;;;9.27;7.47;;;18.90;99.90;;;;;;4827837;29;20883;-85
2022/08/25 06:22:25;;;;;;;8.70;7.90;;;19.00;99.90;;;;;;4838431;29;20455;-86
2022/08/25 06:24:52;;;;;;;8.93;8.07;;;19.10;99.90;;;;;;4832066;29;20198;-86
2022/08/25 06:27:17;;;;;;;8.30;7.60;;;19.20;99.90;;;;;;4824730;29;20617;-86
2022/08/25 06:29:43;;;;;;;8.97;8.10;;;19.40;99.90;;;;;;4846062;29;20439;-86
2022/08/25 06:32:08;;;;;;;9.00;8.10;;;19.60;99.90;;;;;;4844086;29;20190;-87
2022/08/25 06:34:34;;;;;;;8.60;7.70;;;19.70;99.90;;;;;;4827382;29;20843;-86
2022/08/25 06:37:02;;;;;;;9.47;7.47;;;19.80;99.90;;;;;;4842444;29;20316;-86
2022/08/25 06:39:28;;;;;;;8.53;7.73;;;20.10;99.90;;;;;;4846139;29;20499;-86
2022/08/25 06:41:57;;;;;;;8.53;7.73;;;20.30;99.90;;;;;;4828612;29;20439;-86
2022/08/25 06:44:23;;;;;;;8.93;8.13;;;20.40;99.90;;;;;;4845448;29;20594;-85
2022/08/25 06:46:49;;;;;;;8.50;7.57;;;20.40;99.90;;;;;;4830342;29;20447;-86
2022/08/25 06:49:15;;;;;;;9.57;8.57;;;20.60;99.90;;;;;;4827817;29;20265;-86
2022/08/25 06:51:41;;;;;;;8.50;7.47;;;20.60;99.90;;;;;;4839912;29;21502;-86
2022/08/25 06:54:09;;;;;;;8.60;7.80;;;20.60;99.90;;;;;;4824466;29;20599;-86
2022/08/25 06:56:35;;;;;;;9.60;8.80;;;20.60;99.90;;;;;;4828260;29;20210;-86
2022/08/25 06:59:02;;;;;;;8.70;7.90;;;20.60;99.90;;;;;;4846075;29;20445;-86
2022/08/25 07:01:28;;;;;;;8.60;7.83;;;20.60;99.90;;;;;;4826486;29;20459;-86
2022/08/25 07:03:58;;;;;;;9.90;9.00;;;20.80;99.90;;;;;;4824425;29;20439;-87
2022/08/25 07:06:26;;;;;;;9.23;8.40;;;21.00;99.90;;;;;;4844600;29;20601;-91
2022/08/25 07:08:53;;;;;;;9.67;8.80;;;21.00;99.90;;;;;;4832156;29;20481;-91
2022/08/25 07:11:20;;;;;;;9.47;8.53;;;20.90;99.90;;;;;;4830698;29;20463;-92
2022/08/25 07:13:46;;;;;;;8.20;7.50;;;21.00;99.90;;;;;;4846695;29;20490;-91
2022/08/25 07:16:14;;;;;;;9.23;8.33;;;21.00;99.90;;;;;;4844585;29;21097;-91
2022/08/25 07:18:40;;;;;;;7.97;7.37;;;21.00;99.90;;;;;;4843145;29;20527;-92
2022/08/25 07:21:05;;;;;;;8.27;7.50;;;21.00;99.90;;;;;;4842826;29;20471;-91
2022/08/25 07:23:31;;;;;;;10.00;8.20;;;21.10;99.90;;;;;;4845280;29;20234;-91
2022/08/25 07:26:07;;;;;;;8.50;7.73;;;21.20;99.90;;;;;;4831080;29;20709;-92
2022/08/25 07:28:32;;;;;;;9.57;8.53;;;21.30;99.90;;;;;;4835564;29;20647;-91
2022/08/25 07:30:59;;;;;;;8.47;7.77;;;21.30;99.90;;;;;;4829850;29;20487;-92
2022/08/25 07:33:25;;;;;;;9.57;8.67;;;21.40;99.90;;;;;;4835626;29;20606;-92
2022/08/25 07:35:50;;;;;;;8.70;7.90;;;21.50;99.90;;;;;;4845965;29;20553;-92
2022/08/25 07:38:16;;;;;;;8.43;7.67;;;21.50;99.90;;;;;;4834317;29;20595;-91
2022/08/25 07:40:42;;;;;;;8.53;7.83;;;21.70;99.90;;;;;;4845641;29;20195;-92
2022/08/25 07:43:08;;;;;;;9.20;8.13;;;21.70;99.90;;;;;;4831990;29;20537;-91
2022/08/25 07:45:36;;;;;;;8.83;7.97;;;21.70;99.90;;;;;;4833681;29;20649;-92
2022/08/25 07:48:08;;;;;;;9.43;8.53;;;21.70;99.90;;;;;;4850935;29;20579;-91
2022/08/25 07:50:37;;;;;;;9.13;7.70;;;21.90;99.90;;;;;;4852739;29;20837;-92
2022/08/25 07:53:04;;;;;;;7.93;7.33;;;22.00;99.90;;;;;;4847292;29;20442;-92
2022/08/25 07:55:30;;;;;;;8.33;7.67;;;22.20;99.90;;;;;;4829871;29;20804;-91
2022/08/25 07:57:58;;;;;;;9.77;8.77;;;22.40;99.90;;;;;;4850861;29;20924;-92
2022/08/25 08:00:27;;;;;;;8.67;7.90;;;22.40;99.90;;;;;;4839299;29;20447;-91
2022/08/25 08:02:52;;;;;;;8.37;7.70;;;22.50;99.90;;;;;;4848662;29;20454;-91
2022/08/25 08:05:18;;;;;;;8.63;7.93;;;22.50;99.90;;;;;;4849490;29;20941;-91
2022/08/25 08:07:43;;;;;;;8.83;8.00;;;22.50;99.90;;;;;;4833495;29;20190;-92
2022/08/25 08:10:12;;;;;;;7.40;6.70;;;22.70;99.90;;;;;;4832832;29;20229;-92
2022/08/25 08:12:38;;;;;;;8.07;7.37;;;22.80;99.90;;;;;;4837032;29;20186;-91
2022/08/25 08:15:04;;;;;;;9.07;8.27;;;22.90;99.90;;;;;;4848239;29;20462;-92
2022/08/25 08:17:30;;;;;;;8.93;7.90;;;22.90;99.90;;;;;;4845108;29;21020;-92
2022/08/25 08:19:57;;;;;;;8.73;7.83;;;22.90;99.90;;;;;;4831820;29;20458;-92
2022/08/25 08:22:22;;;;;;;7.73;7.00;;;23.00;99.90;;;;;;4834808;29;20645;-91
2022/08/25 08:24:57;;;;;;;8.50;7.80;;;23.10;99.90;;;;;;4833255;29;20437;-91
2022/08/25 08:27:23;;;;;;;8.30;7.57;;;23.40;99.90;;;;;;4830201;29;20334;-91
2022/08/25 08:29:49;;;;;;;7.83;7.03;;;23.50;99.90;;;;;;4833337;29;20838;-91
2022/08/25 08:32:16;;;;;;;7.83;7.10;;;23.60;99.90;;;;;;4832162;29;20458;-91
2022/08/25 08:34:42;;;;;;;8.50;7.70;;;23.60;99.90;;;;;;4843738;29;20213;-91
2022/08/25 08:37:08;;;;;;;9.23;8.23;;;23.70;99.90;;;;;;4828169;29;20570;-90
2022/08/25 08:39:33;;;;;;;15.70;9.10;;;23.90;99.90;;;;;;4847666;29;20186;-91
2022/08/25 08:42:45;;;;;;;8.27;7.27;;;23.90;99.90;;;;;;4835342;29;20273;-91
2022/08/25 08:45:37;;;;;;;7.40;6.80;;;24.20;99.90;;;;;;4837100;29;20305;-92
2022/08/25 08:48:15;;;;;;;8.80;7.90;;;24.00;99.90;;;;;;4843495;29;20498;-91
2022/08/25 08:51:15;;;;;;;7.90;7.17;;;24.00;99.90;;;;;;4836686;29;20443;-90
2022/08/25 08:53:48;;;;;;;8.43;7.63;;;24.20;99.90;;;;;;4815438;29;25589;-91
2022/08/25 08:56:20;;;;;;;8.63;7.83;;;24.40;99.90;;;;;;4824754;29;20997;-91
2022/08/25 08:58:47;;;;;;;8.63;7.80;;;24.40;99.90;;;;;;4838410;29;20440;-90
2022/08/25 09:01:21;;;;;;;8.50;7.73;;;24.40;99.90;;;;;;4828707;29;20586;-91
2022/08/25 09:03:53;;;;;;;8.50;7.80;;;24.60;99.90;;;;;;4827889;29;20487;-91
2022/08/25 09:06:31;;;;;;;8.27;7.67;;;24.60;99.90;;;;;;4826377;29;20446;-91
2022/08/25 09:09:00;;;;;;;7.13;6.60;;;24.70;99.90;;;;;;4832129;29;20457;-91
2022/08/25 09:11:32;;;;;;;10.77;7.40;;;24.80;99.90;;;;;;4826162;29;20451;-91
2022/08/25 09:14:22;;;;;;;6.70;6.20;;;24.90;99.90;;;;;;4828982;29;20472;-90
2022/08/25 09:17:01;;;;;;;7.60;7.00;;;25.10;99.90;;;;;;4830558;29;20489;-91
2022/08/25 09:20:16;;;;;;;7.13;6.53;;;25.20;99.90;;;;;;4825386;29;20446;-90
2022/08/25 09:23:05;;;;;;;6.40;5.97;;;25.30;99.90;;;;;;4831409;29;20458;-90
2022/08/25 09:26:06;;;;;;;7.27;6.77;;;25.30;99.90;;;;;;4846572;29;20507;-92
2022/08/25 09:28:48;;;;;;;7.07;6.07;;;25.60;99.90;;;;;;4799646;29;20458;-90
2022/08/25 09:31:23;;;;;;;7.17;6.57;;;25.60;99.90;;;;;;4834491;29;20458;-91
2022/08/25 09:33:54;;;;;;;6.17;5.73;;;25.60;99.90;;;;;;4833804;29;20489;-90
2022/08/25 09:36:19;;;;;;;7.07;6.50;;;25.60;99.90;;;;;;4846286;29;20471;-91
2022/08/25 09:38:46;;;;;;;6.80;6.23;;;25.60;99.90;;;;;;4837601;29;20447;-90
2022/08/25 09:41:15;;;;;;;6.37;5.87;;;25.90;99.90;;;;;;4829603;29;20190;-91
2022/08/25 09:43:51;;;;;;;6.20;5.70;;;26.20;99.90;;;;;;4844622;29;20466;-91
2022/08/25 09:46:27;;;;;;;6.50;6.00;;;26.30;99.90;;;;;;4845372;29;20474;-90
2022/08/25 09:48:56;;;;;;;6.50;6.00;;;26.20;99.10;;;;;;4849648;29;20443;-90
2022/08/25 09:51:31;;;;;;;6.53;6.00;;;26.20;99.80;;;;;;4826114;29;20470;-91
2022/08/25 09:54:24;;;;;;;6.63;6.10;;;26.30;99.90;;;;;;4834079;29;21355;-91
2022/08/25 09:56:52;;;;;;;6.33;5.83;;;26.30;99.70;;;;;;4831845;29;20601;-90
2022/08/25 09:59:20;;;;;;;7.37;6.50;;;26.40;98.60;;;;;;4829618;29;21004;-91
2022/08/25 10:01:58;;;;;;;7.13;6.63;;;26.50;99.90;;;;;;4843410;29;20451;-90
2022/08/25 10:04:31;;;;;;;6.30;5.80;;;26.40;98.60;;;;;;4817000;29;20469;-90
2022/08/25 10:07:07;;;;;;;6.00;5.60;;;26.40;98.80;;;;;;4828977;29;21096;-91
2022/08/25 10:09:50;;;;;;;5.90;5.50;;;26.60;99.70;;;;;;4848714;29;20460;-92
2022/08/25 10:12:27;;;;;;;5.63;5.23;;;26.60;98.90;;;;;;4851342;29;20455;-90
2022/08/25 10:14:54;;;;;;;6.30;5.90;;;26.30;98.50;;;;;;4833049;29;20479;-91
2022/08/25 10:17:29;;;;;;;5.63;5.23;;;26.60;97.70;;;;;;4811796;29;21166;-91
2022/08/25 10:20:19;;;;;;;6.40;5.90;;;26.80;98.30;;;;;;4843825;29;20442;-91
2022/08/25 10:23:12;;;;;;;5.33;4.93;;;27.00;98.20;;;;;;4851392;29;21062;-91
2022/08/25 10:25:44;;;;;;;5.63;5.23;;;27.40;95.50;;;;;;4828902;29;20896;-90
2022/08/25 10:28:57;;;;;;;6.50;6.00;;;27.30;97.00;;;;;;4829722;29;20503;-90
2022/08/25 10:31:54;;;;;;;5.60;5.20;;;27.60;97.00;;;;;;4829677;29;21179;-90
2022/08/25 10:34:55;;;;;;;5.80;5.30;;;27.90;94.70;;;;;;4830201;29;20452;-90
2022/08/25 10:37:29;;;;;;;6.10;5.50;;;28.40;94.70;;;;;;4826678;29;20475;-90
2022/08/25 10:40:08;;;;;;;6.07;5.57;;;28.70;93.90;;;;;;4828579;29;20443;-90
2022/08/25 10:42:49;;;;;;;5.87;5.47;;;29.00;93.40;;;;;;4849253;29;20972;-90
2022/08/25 10:48:11;;;;;;;5.63;5.23;;;29.10;93.50;;;;;;4850214;29;20454;-91
2022/08/25 10:50:51;;;;;;;6.17;5.67;;;29.10;92.80;;;;;;4828168;29;20454;-90
2022/08/25 10:53:26;;;;;;;5.10;4.70;;;29.40;91.50;;;;;;4847551;29;20450;-91
2022/08/25 10:56:17;;;;;;;5.33;4.97;;;28.80;90.10;;;;;;4832229;29;20972;-90
2022/08/25 10:59:12;;;;;;;5.40;5.00;;;28.60;89.70;;;;;;4831847;29;20491;-91
2022/08/25 11:02:11;;;;;;;6.17;5.00;;;28.50;90.70;;;;;;4849111;29;20522;-90
2022/08/25 11:04:43;;;;;;;5.63;5.13;;;27.80;92.10;;;;;;4834057;29;21405;-91
2022/08/25 11:07:15;;;;;;;5.80;5.30;;;28.10;91.90;;;;;;4851471;29;20443;-91
2022/08/25 11:09:46;;;;;;;6.10;5.50;;;28.60;91.70;;;;;;4830690;29;20541;-91
2022/08/25 11:12:20;;;;;;;5.67;5.27;;;28.80;89.00;;;;;;4848135;29;20452;-91
2022/08/25 11:14:51;;;;;;;5.50;5.00;;;29.00;90.90;;;;;;4833183;29;20427;-90
2022/08/25 11:17:23;;;;;;;6.50;5.20;;;29.20;91.00;;;;;;4848356;29;20479;-89
2022/08/25 11:19:55;;;;;;;5.37;4.90;;;29.40;91.30;;;;;;4830370;29;20456;-88
2022/08/25 11:22:41;;;;;;;5.93;4.93;;;29.60;89.10;;;;;;4849027;29;20487;-89
2022/08/25 11:25:25;;;;;;;4.93;4.63;;;29.80;88.60;;;;;;4830154;29;20478;-90
2022/08/25 11:27:53;;;;;;;5.30;4.83;;;29.90;89.10;;;;;;4828619;29;20447;-91
2022/08/25 11:30:19;;;;;;;5.13;4.73;;;29.80;90.10;;;;;;4843141;29;21098;-91
2022/08/25 11:32:48;;;;;;;4.97;4.60;;;30.10;90.70;;;;;;4840001;29;20531;-89
2022/08/25 11:35:17;;;;;;;5.37;4.90;;;30.20;83.80;;;;;;4839014;29;21886;-89
2022/08/25 11:37:58;;;;;;;5.00;4.70;;;29.80;90.00;;;;;;4824150;29;20479;-89
2022/08/25 11:40:47;;;;;;;5.03;4.67;;;29.70;90.90;;;;;;4824443;29;20450;-91
2022/08/25 11:43:41;;;;;;;5.07;4.67;;;30.10;89.00;;;;;;4831360;29;20525;-90
2022/08/25 11:46:34;;;;;;;4.50;4.20;;;30.60;84.20;;;;;;4836837;29;20451;-90
2022/08/25 11:49:41;;;;;;;4.60;4.30;;;30.30;82.40;;;;;;4825852;29;21100;-90
2022/08/25 11:52:33;;;;;;;4.40;4.10;;;29.90;81.90;;;;;;4801871;29;20503;-90
2022/08/25 11:55:26;;;;;;;4.93;4.60;;;29.70;81.80;;;;;;4843056;29;20457;-89
2022/08/25 11:58:27;;;;;;;4.60;4.20;;;29.70;84.50;;;;;;4830400;29;20498;-89
2022/08/25 12:00:54;;;;;;;4.53;4.23;;;29.90;88.80;;;;;;4838424;29;20529;-91
2022/08/25 12:03:35;;;;;;;5.07;4.67;;;30.20;85.10;;;;;;4842202;29;20458;-90
2022/08/25 12:06:23;;;;;;;6.00;4.60;;;30.60;87.70;;;;;;4841111;29;20447;-89
2022/08/25 12:08:53;;;;;;;5.00;4.70;;;30.70;83.00;;;;;;4850294;29;20457;-90
2022/08/25 12:11:46;;;;;;;4.60;4.30;;;30.40;83.00;;;;;;4830944;29;20468;-90
2022/08/25 12:14:20;;;;;;;4.90;4.60;;;29.30;83.70;;;;;;4842012;29;20442;-90
2022/08/25 12:16:55;;;;;;;4.77;4.47;;;29.20;84.70;;;;;;4847607;29;20485;-91
2022/08/25 12:19:36;;;;;;;4.83;4.43;;;29.60;86.20;;;;;;4830402;29;20453;-91
2022/08/25 12:22:01;;;;;;;4.63;4.30;;;30.00;84.90;;;;;;4849685;29;20517;-91
2022/08/25 12:24:36;;;;;;;4.63;4.33;;;30.10;87.60;;;;;;4844555;29;21006;-92
2022/08/25 12:27:05;;;;;;;4.70;4.40;;;30.40;87.10;;;;;;4834461;29;20197;-91
2022/08/25 12:29:42;;;;;;;5.57;4.87;;;30.60;82.40;;;;;;4835303;29;20480;-91
2022/08/25 12:32:25;;;;;;;4.50;4.20;;;30.90;85.30;;;;;;4829343;29;20759;-91
2022/08/25 12:35:12;;;;;;;4.50;4.20;;;30.90;84.00;;;;;;4840390;29;20473;-91
2022/08/25 12:38:17;;;;;;;4.47;4.13;;;30.80;81.70;;;;;;4846755;29;20497;-91
2022/08/25 12:40:43;;;;;;;4.10;3.80;;;31.30;80.90;;;;;;4837158;29;21054;-91
2022/08/25 12:43:31;;;;;;;5.23;4.87;;;30.80;81.30;;;;;;4822780;29;20455;-92
2022/08/25 12:46:15;;;;;;;4.70;4.30;;;29.90;82.80;;;;;;4818059;29;20190;-91
2022/08/25 12:48:55;;;;;;;4.67;4.37;;;29.50;83.40;;;;;;4848451;29;20498;-92
2022/08/25 12:51:41;;;;;;;4.40;4.20;;;29.20;84.10;;;;;;4822401;29;20455;-91
2022/08/25 12:54:14;;;;;;;4.77;4.47;;;29.30;84.80;;;;;;4831251;29;20443;-91
2022/08/25 12:56:48;;;;;;;4.20;3.90;;;29.80;80.10;;;;;;4829297;29;20490;-90
2022/08/25 12:59:29;;;;;;;6.83;4.20;;;30.30;77.00;;;;;;4823651;29;20452;-91
2022/08/25 13:02:35;;;;;;;4.30;4.00;;;31.00;80.40;;;;;;4827405;29;20447;-92
2022/08/25 13:05:24;;;;;;;5.20;4.30;;;31.00;79.00;;;;;;4823362;29;20474;-91
2022/08/25 13:08:12;;;;;;;4.10;3.80;;;31.40;79.30;;;;;;4848394;29;20450;-91
2022/08/25 13:10:42;;;;;;;4.10;3.90;;;31.80;79.40;;;;;;4826304;29;20443;-91
2022/08/25 13:13:22;;;;;;;4.20;4.00;;;31.80;77.30;;;;;;4832216;29;20521;-91
2022/08/25 13:16:03;;;;;;;3.80;3.60;;;32.30;72.10;;;;;;4829471;29;20538;-92